»·PEaware :: SNK5721 KSNA-KUDD

SNK5721 :: KSNA-KUDD

FLIGHT INFORMATION

Flight Status: Arrived
Operator: Unknown
More flights by this operator :: More flights under this callsign
Pilot: Anonymous 8799 (8799)
Aircraft: CESSNA 510 CITATION MUSTANG
(C510)
More flights by this aircraft type
Origin: KSNA John Wayne-Orange Co
United States
Destination: KUDD Bermuda Dunes
United States
More flights between these airports :: More routes between these airports
Route: +MUSEL8 TRM
File this flight plan on PilotEdge
Remarks:
Altitude:
(Current/Filed)
11,000ft
Speed:
(Current/Filed)
250kts
Departed: 09-Oct-19 11:19 AM
Arrived: 09-Oct-19 11:44 AM
Distance/Time
Traveled:
80nm/0:24
Distance/Time
To Go:
Arrived

Flight Plot

Page will automatically refresh every two minutes.


Map Options




Map Legend


Flown Route
Filed Route
Departure Airport
Arrival Airport
Navaid (VOR, NDB)
Fix

Horizontal Profiles

Position Reports

Time Latitude Longitude Heading Altitude Ground
Speed
09-Oct-19 10:51 33.671272 -117.867508 213 61ft 0kts
09-Oct-19 10:52 33.671272 -117.867508 213 61ft 0kts
09-Oct-19 10:53 33.671272 -117.867508 213 61ft 0kts
09-Oct-19 10:54 33.671272 -117.867508 213 61ft 0kts
09-Oct-19 10:55 33.671272 -117.867508 213 61ft 0kts
09-Oct-19 10:56 33.671272 -117.867508 213 61ft 0kts
09-Oct-19 10:57 33.671272 -117.867508 213 61ft 0kts
09-Oct-19 10:58 33.671272 -117.867508 213 61ft 0kts
09-Oct-19 10:59 33.671272 -117.867508 213 61ft 0kts
09-Oct-19 11:00 33.671272 -117.867508 213 61ft 0kts
09-Oct-19 11:01 33.671272 -117.867508 213 61ft 0kts
09-Oct-19 11:02 33.671272 -117.867508 213 61ft 0kts
09-Oct-19 11:03 33.671272 -117.867508 213 61ft 0kts
09-Oct-19 11:04 33.671272 -117.867508 213 61ft 0kts
09-Oct-19 11:05 33.671272 -117.867508 213 61ft 0kts
09-Oct-19 11:06 33.671272 -117.867508 213 61ft 0kts
09-Oct-19 11:07 33.671272 -117.867508 213 61ft 0kts
09-Oct-19 11:08 33.671272 -117.867508 213 61ft 0kts
09-Oct-19 11:09 33.671272 -117.867508 213 61ft 0kts
09-Oct-19 11:10 33.671238 -117.867574 260 61ft 3kts
09-Oct-19 11:11 33.671330 -117.867718 332 61ft 0kts
09-Oct-19 11:12 33.673132 -117.867175 47 61ft 11kts
09-Oct-19 11:13 33.675789 -117.865391 28 61ft 13kts
09-Oct-19 11:14 33.679112 -117.863264 30 61ft 1kts
09-Oct-19 11:15 33.681050 -117.863965 298 61ft 11kts
09-Oct-19 11:16 33.681142 -117.864175 297 61ft 0kts
09-Oct-19 11:17 33.681142 -117.864175 297 61ft 0kts
09-Oct-19 11:18 33.679807 -117.866236 207 61ft 54kts
09-Oct-19 11:19 33.642033 -117.891032 192 1171ft 226kts
09-Oct-19 11:20 33.576158 -117.903771 189 3666ft 243kts
09-Oct-19 11:21 33.512818 -117.895538 119 5980ft 251kts
09-Oct-19 11:22 33.514815 -117.809788 82 7011ft 287kts
09-Oct-19 11:23 33.521534 -117.718861 81 9008ft 272kts
09-Oct-19 11:24 33.528356 -117.626460 81 10204ft 291kts
09-Oct-19 11:25 33.535825 -117.526581 81 11013ft 317kts
09-Oct-19 11:26 33.543622 -117.418983 81 11007ft 319kts
09-Oct-19 11:27 33.552134 -117.319787 77 11001ft 282kts
09-Oct-19 11:28 33.576240 -117.232694 67 11007ft 272kts
09-Oct-19 11:29 33.602056 -117.146375 65 11000ft 276kts
09-Oct-19 11:30 33.628278 -117.059391 66 10970ft 273kts
09-Oct-19 11:31 33.653491 -116.974570 67 10923ft 267kts
09-Oct-19 11:32 33.677968 -116.891590 68 10874ft 259kts
09-Oct-19 11:33 33.701676 -116.809876 74 10858ft 258kts
09-Oct-19 11:34 33.697274 -116.723854 98 10769ft 260kts
09-Oct-19 11:35 33.685381 -116.639466 98 10066ft 253kts
09-Oct-19 11:36 33.673444 -116.556718 97 9369ft 250kts
09-Oct-19 11:37 33.663968 -116.474564 95 8843ft 241kts
09-Oct-19 11:38 33.654954 -116.395090 95 7379ft 238kts
09-Oct-19 11:39 33.663515 -116.319067 79 5778ft 231kts
09-Oct-19 11:40 33.676919 -116.243607 79 3365ft 233kts
09-Oct-19 11:41 33.712748 -116.231936 291 1293ft 136kts
09-Oct-19 11:42 33.738065 -116.251294 310 460ft 110kts
09-Oct-19 11:43 33.748763 -116.275686 296 78ft 27kts
09-Oct-19 11:44 33.748456 -116.276233 119 78ft 4kts
09-Oct-19 11:45 33.746786 -116.272997 192 78ft 11kts

Navigation Log

Ident Type
Flight plan parsing failed, navigation log unavailable